首页
METAR-TAF:

METAR-TAF

机场 :

Rouyn-Noranda, 魁北克, 加拿大

纬度: 48-12N, 经度: 078-50W, 海拔: 301米

当前天气观测

该预报发布于1小时和8分钟前的20:00 UTC
风速8节,风向北转西北,有时为19节阵风,在西转西北之间变化
温度 10°C
湿度 71%
气压 1017 hPa
能見度: 24.1公里
多云层高于2300英尺

METAR: CYUY 062000Z 33008G19KT 300V360 15SM BKN023 10/05 A3004 RMK SC7 SLP182

时间: 17:08 (21:08 UTC)

预报

该预报发布于3小时和27分钟前的17:41 UTC
预报有效从06日的 18点(UTC)到 07日的 06点(UTC)
风速12节,风向北转西北
能見度: 10公里
散云层高于1500英尺
多云层高于10000英尺
短暂存在
从 06日的 18点(UTC)到 07日的 03点(UTC)
多云层高于1500英尺
阴天层高于4000英尺
成为
从 06日的 19点(UTC)到 06日的 21点(UTC)
风速10节,风向
从 07日的 0300点(UTC)
风速8节,风向
能見度: 10公里
散云层高于4000英尺
短暂存在
从 07日的 03点(UTC)到 07日的 06点(UTC)
多云层高于4000英尺

TAF: CYUY 061741Z 0618/0706 33012KT P6SM SCT015 BKN100 TEMPO 0618/0703 BKN015 OVC040 BECMG 0619/0621 35010KT FM070300 35008KT P6SM SCT040 TEMPO 0703/0706 BKN040 RMK NXT FCST BY 070000Z

超过4000个机场的气象观测和天气预报(METAR&TAF报告)。

可查询的气象台以黄色和红色小点在地图上表示。

将鼠标移到小点上方,可查看气象台名称。

然后点击查看天气观测和预报。

如需切换地图:点击带黑十字的绿色按钮放大地图;点击带横线的绿色按钮缩小地图;或者点击绿色箭头查看邻近地区的地图。


METAR-TAF: